Time;durP1;ratioP1;P1;durP2;ratioP2;P2;SDS_P1;SDS_P2;PMS_P1;PMS_P2;Temp;Humidity;BMP_temperature;BMP_pressure;BME280_temperature;BME280_humidity;BME280_pressure;Samples;Min_cycle;Max_cycle;Signal;HPM_P1;HPM_P2
2023/03/17 00:00:10;;;;;;;0.10;0.10;;;;;;;;;;5078223;28;20036;-77
2023/03/17 00:02:44;;;;;;;0.10;0.10;;;;;;;;;;5077857;28;20434;-77
2023/03/17 00:05:23;;;;;;;2.38;1.30;;;;;;;;;;5078088;28;20041;-77
2023/03/17 00:07:49;;;;;;;0.10;0.10;;;;;;;;;;5060207;28;20032;-75
2023/03/17 00:10:16;;;;;;;0.10;0.10;;;;;;;;;;5088080;28;20032;-76
2023/03/17 00:12:42;;;;;;;0.10;0.10;;;;;;;;;;5088249;28;20062;-76
2023/03/17 00:15:09;;;;;;;1.75;1.65;;;;;;;;;;5087505;28;20024;-76
2023/03/17 00:17:35;;;;;;;3.65;1.38;;;;;;;;;;5092203;28;20534;-76
2023/03/17 00:20:01;;;;;;;0.65;0.65;;;;;;;;;;5075039;28;20059;-76
2023/03/17 00:22:26;;;;;;;3.45;3.13;;;;;;;;;;5075201;28;20459;-77
2023/03/17 00:24:52;;;;;;;0.52;0.52;;;;;;;;;;5093106;28;20034;-77
2023/03/17 00:27:18;;;;;;;0.10;0.10;;;;;;;;;;5091891;28;20038;-77
2023/03/17 00:29:43;;;;;;;2.97;0.98;;;;;;;;;;5084741;28;20383;-76
2023/03/17 00:32:16;;;;;;;0.30;0.30;;;;;;;;;;5071773;28;20476;-77
2023/03/17 00:34:42;;;;;;;3.53;1.10;;;;;;;;;;5071509;28;20037;-77
2023/03/17 00:37:11;;;;;;;0.10;0.10;;;;;;;;;;5073338;28;20086;-77
2023/03/17 00:39:38;;;;;;;0.10;0.10;;;;;;;;;;5073100;28;20106;-77
2023/03/17 00:42:04;;;;;;;0.13;0.13;;;;;;;;;;5071709;28;20043;-77
2023/03/17 00:44:29;;;;;;;0.10;0.10;;;;;;;;;;5055024;28;20033;-77
2023/03/17 00:46:55;;;;;;;0.45;0.45;;;;;;;;;;5071574;28;20078;-77
2023/03/17 00:49:22;;;;;;;0.40;0.40;;;;;;;;;;5077876;28;20535;-76
2023/03/17 00:51:48;;;;;;;0.10;0.10;;;;;;;;;;5079323;28;20471;-74
2023/03/17 00:54:14;;;;;;;0.10;0.10;;;;;;;;;;5092778;28;20349;-77
2023/03/17 00:56:41;;;;;;;0.30;0.30;;;;;;;;;;5091524;28;20028;-77
2023/03/17 00:59:26;;;;;;;0.10;0.10;;;;;;;;;;5091737;28;20036;-77
2023/03/17 01:01:51;;;;;;;0.10;0.10;;;;;;;;;;5091605;28;20032;-76
2023/03/17 01:04:19;;;;;;;0.10;0.10;;;;;;;;;;5093175;28;20044;-77
2023/03/17 01:06:45;;;;;;;0.10;0.10;;;;;;;;;;5085937;28;20387;-77
2023/03/17 01:09:13;;;;;;;0.10;0.10;;;;;;;;;;5086191;28;20495;-77
2023/03/17 01:11:38;;;;;;;0.30;0.30;;;;;;;;;;5071746;28;20066;-77
2023/03/17 01:14:04;;;;;;;0.10;0.10;;;;;;;;;;5072749;28;20177;-78
2023/03/17 01:16:30;;;;;;;0.45;0.45;;;;;;;;;;5071348;28;20051;-79
2023/03/17 01:18:55;;;;;;;5.30;4.95;;;;;;;;;;5089874;28;20032;-79
2023/03/17 01:21:21;;;;;;;0.10;0.10;;;;;;;;;;5092936;28;20032;-77
2023/03/17 01:23:47;;;;;;;0.55;0.55;;;;;;;;;;5091910;28;20430;-77
2023/03/17 01:26:12;;;;;;;0.20;0.20;;;;;;;;;;5092717;28;20036;-76
2023/03/17 01:28:38;;;;;;;0.10;0.10;;;;;;;;;;5092093;28;20032;-78
2023/03/17 01:31:03;;;;;;;0.10;0.10;;;;;;;;;;5067901;28;20033;-76
2023/03/17 01:33:29;;;;;;;0.10;0.10;;;;;;;;;;5075941;28;20380;-77
2023/03/17 01:35:54;;;;;;;0.10;0.10;;;;;;;;;;5074656;28;20031;-77
2023/03/17 01:38:21;;;;;;;0.10;0.10;;;;;;;;;;5076195;28;20025;-77
2023/03/17 01:40:48;;;;;;;0.20;0.20;;;;;;;;;;5074763;28;20056;-78
2023/03/17 01:43:16;;;;;;;0.10;0.10;;;;;;;;;;5093200;28;20442;-77
2023/03/17 01:46:00;;;;;;;0.10;0.10;;;;;;;;;;5095955;28;20036;-77
2023/03/17 01:48:26;;;;;;;0.13;0.13;;;;;;;;;;5096208;28;20043;-77
2023/03/17 01:50:52;;;;;;;0.10;0.10;;;;;;;;;;5094699;28;20482;-77
2023/03/17 01:53:19;;;;;;;0.13;0.13;;;;;;;;;;5094485;28;20517;-77
2023/03/17 01:55:45;;;;;;;0.10;0.10;;;;;;;;;;5093786;28;20115;-76
2023/03/17 01:58:12;;;;;;;0.10;0.10;;;;;;;;;;5077408;28;20572;-76
2023/03/17 02:00:38;;;;;;;0.20;0.20;;;;;;;;;;5094383;28;20035;-76
2023/03/17 02:03:04;;;;;;;0.20;0.20;;;;;;;;;;5094310;28;20114;-77
2023/03/17 02:05:31;;;;;;;0.52;0.52;;;;;;;;;;5095685;28;20032;-76
2023/03/17 02:07:56;;;;;;;0.38;0.38;;;;;;;;;;5094380;28;20039;-77
2023/03/17 02:10:28;;;;;;;0.03;0.03;;;;;;;;;;5076910;28;20444;-77
2023/03/17 02:12:56;;;;;;;0.30;0.30;;;;;;;;;;5075518;28;20042;-77
2023/03/17 02:15:21;;;;;;;0.30;0.30;;;;;;;;;;5092999;28;20036;-77
2023/03/17 02:17:47;;;;;;;0.10;0.10;;;;;;;;;;5095532;28;20059;-76
2023/03/17 02:20:16;;;;;;;0.25;0.25;;;;;;;;;;5095270;28;20039;-75
2023/03/17 02:22:47;;;;;;;0.10;0.10;;;;;;;;;;5067516;28;20045;-78
2023/03/17 02:25:13;;;;;;;0.10;0.10;;;;;;;;;;5068093;28;20043;-77
2023/03/17 02:27:41;;;;;;;0.32;0.32;;;;;;;;;;5095445;28;20028;-77
2023/03/17 02:30:10;;;;;;;0.10;0.10;;;;;;;;;;5093910;28;20032;-77
2023/03/17 02:32:36;;;;;;;0.10;0.10;;;;;;;;;;5095169;28;20395;-78
2023/03/17 02:35:02;;;;;;;0.10;0.10;;;;;;;;;;5095081;28;20032;-77
2023/03/17 02:37:28;;;;;;;0.17;0.17;;;;;;;;;;5094821;28;20471;-78
2023/03/17 02:39:53;;;;;;;0.10;0.10;;;;;;;;;;5091064;28;20038;-78
2023/03/17 02:42:19;;;;;;;0.22;0.22;;;;;;;;;;5094821;28;20383;-77
2023/03/17 02:44:45;;;;;;;0.13;0.13;;;;;;;;;;5094894;28;20083;-78
2023/03/17 02:47:11;;;;;;;0.10;0.10;;;;;;;;;;5093705;28;20557;-78
2023/03/17 02:49:37;;;;;;;0.10;0.10;;;;;;;;;;5076700;28;20509;-77
2023/03/17 02:52:03;;;;;;;0.10;0.10;;;;;;;;;;5094726;28;20067;-77
2023/03/17 02:54:29;;;;;;;0.10;0.10;;;;;;;;;;5092157;28;20062;-77
2023/03/17 02:56:54;;;;;;;0.10;0.10;;;;;;;;;;5094458;28;20047;-77
2023/03/17 02:59:20;;;;;;;0.10;0.10;;;;;;;;;;5094376;28;20036;-77
2023/03/17 03:01:47;;;;;;;0.10;0.10;;;;;;;;;;5093491;28;20059;-76
2023/03/17 03:04:12;;;;;;;0.10;0.10;;;;;;;;;;5094579;28;20158;-77
2023/03/17 03:06:38;;;;;;;0.20;0.20;;;;;;;;;;5094495;28;20099;-75
2023/03/17 03:09:04;;;;;;;0.10;0.10;;;;;;;;;;5092902;28;20032;-76
2023/03/17 03:11:30;;;;;;;0.20;0.20;;;;;;;;;;5092884;28;20506;-76
2023/03/17 03:13:56;;;;;;;0.10;0.10;;;;;;;;;;5076341;28;20490;-74
2023/03/17 03:16:21;;;;;;;0.10;0.10;;;;;;;;;;5094302;28;20019;-75
2023/03/17 03:18:47;;;;;;;0.10;0.10;;;;;;;;;;5076460;28;20036;-75
2023/03/17 03:21:12;;;;;;;0.10;0.10;;;;;;;;;;5094177;28;20046;-76
2023/03/17 03:23:38;;;;;;;0.30;0.30;;;;;;;;;;5093052;28;20450;-75
2023/03/17 03:26:03;;;;;;;0.10;0.10;;;;;;;;;;5092778;28;20060;-75
2023/03/17 03:28:29;;;;;;;0.10;0.10;;;;;;;;;;5092850;28;20058;-76
2023/03/17 03:30:54;;;;;;;0.13;0.13;;;;;;;;;;5093848;28;20036;-76
2023/03/17 03:33:20;;;;;;;0.10;0.10;;;;;;;;;;5094049;28;20034;-76
2023/03/17 03:35:45;;;;;;;0.10;0.10;;;;;;;;;;5093963;28;20056;-75
2023/03/17 03:38:11;;;;;;;0.05;0.05;;;;;;;;;;5093945;28;20035;-74
2023/03/17 03:40:37;;;;;;;0.10;0.10;;;;;;;;;;5093746;28;20426;-74
2023/03/17 03:43:03;;;;;;;0.10;0.10;;;;;;;;;;5074352;28;20067;-74
2023/03/17 03:45:28;;;;;;;0.10;0.10;;;;;;;;;;5093767;28;20039;-74
2023/03/17 03:47:54;;;;;;;0.10;0.10;;;;;;;;;;5093799;28;20088;-74
2023/03/17 03:50:20;;;;;;;0.20;0.20;;;;;;;;;;5075377;28;20407;-73
2023/03/17 03:52:46;;;;;;;0.10;0.10;;;;;;;;;;5093750;28;20043;-74
2023/03/17 03:55:11;;;;;;;0.20;0.20;;;;;;;;;;5091085;28;20036;-74
2023/03/17 03:57:37;;;;;;;0.90;0.50;;;;;;;;;;5092345;28;20111;-74
2023/03/17 04:00:03;;;;;;;0.10;0.10;;;;;;;;;;5092343;28;20032;-75
2023/03/17 04:02:37;;;;;;;0.15;0.15;;;;;;;;;;5090245;28;20075;-75
2023/03/17 04:05:02;;;;;;;0.20;0.20;;;;;;;;;;5088374;28;20060;-73
2023/03/17 04:07:28;;;;;;;0.10;0.10;;;;;;;;;;5089463;28;20609;-74
2023/03/17 04:09:53;;;;;;;0.10;0.10;;;;;;;;;;5087969;28;20040;-76
2023/03/17 04:12:19;;;;;;;0.10;0.10;;;;;;;;;;5070956;28;20391;-76
2023/03/17 04:14:44;;;;;;;0.22;0.22;;;;;;;;;;5090062;28;20107;-75
2023/03/17 04:17:10;;;;;;;0.10;0.10;;;;;;;;;;5086907;28;20036;-75
2023/03/17 04:19:37;;;;;;;0.30;0.30;;;;;;;;;;5089023;28;20028;-75
2023/03/17 04:22:02;;;;;;;0.00;0.00;;;;;;;;;;5088218;28;20040;-76
2023/03/17 04:24:28;;;;;;;0.10;0.10;;;;;;;;;;5089339;28;20043;-76
2023/03/17 04:26:53;;;;;;;0.10;0.10;;;;;;;;;;5088033;28;20380;-77
2023/03/17 04:29:19;;;;;;;0.10;0.10;;;;;;;;;;5089473;28;20040;-76
2023/03/17 04:31:45;;;;;;;0.10;0.10;;;;;;;;;;5088632;28;20474;-77
2023/03/17 04:34:15;;;;;;;0.08;0.08;;;;;;;;;;5089265;28;20132;-77
2023/03/17 04:36:41;;;;;;;0.10;0.10;;;;;;;;;;5088250;28;20038;-77
2023/03/17 04:39:06;;;;;;;0.10;0.10;;;;;;;;;;5089145;28;20035;-77
2023/03/17 04:41:32;;;;;;;0.00;0.00;;;;;;;;;;5069992;28;20035;-77
2023/03/17 04:43:57;;;;;;;0.10;0.10;;;;;;;;;;5089136;28;20032;-77
2023/03/17 04:46:22;;;;;;;0.08;0.08;;;;;;;;;;5089395;28;20020;-76
2023/03/17 04:48:48;;;;;;;2.90;2.70;;;;;;;;;;5089109;28;20043;-77
2023/03/17 04:51:13;;;;;;;0.10;0.10;;;;;;;;;;5087710;28;20356;-78
2023/03/17 04:53:39;;;;;;;0.30;0.30;;;;;;;;;;5087999;28;20040;-77
2023/03/17 04:56:04;;;;;;;0.20;0.20;;;;;;;;;;5086514;28;20872;-78
2023/03/17 04:58:30;;;;;;;0.08;0.08;;;;;;;;;;5070885;28;20153;-76
2023/03/17 05:00:55;;;;;;;0.00;0.00;;;;;;;;;;5089144;28;20063;-76
2023/03/17 05:03:21;;;;;;;0.20;0.20;;;;;;;;;;5089682;28;20051;-77
2023/03/17 05:05:46;;;;;;;0.10;0.10;;;;;;;;;;5091636;28;20424;-77
2023/03/17 05:08:12;;;;;;;0.00;0.00;;;;;;;;;;5074420;28;20040;-76
2023/03/17 05:10:37;;;;;;;0.10;0.10;;;;;;;;;;5089729;28;20036;-76
2023/03/17 05:13:02;;;;;;;3.70;1.30;;;;;;;;;;5071957;28;20425;-77
2023/03/17 05:15:29;;;;;;;0.10;0.10;;;;;;;;;;5086414;28;20103;-77
2023/03/17 05:17:55;;;;;;;0.10;0.10;;;;;;;;;;5092362;28;20375;-77
2023/03/17 05:20:20;;;;;;;0.10;0.10;;;;;;;;;;5091541;28;20032;-77
2023/03/17 05:22:46;;;;;;;1.08;0.45;;;;;;;;;;5091337;28;20537;-77
2023/03/17 05:25:11;;;;;;;0.10;0.10;;;;;;;;;;5088814;28;20043;-77
2023/03/17 05:27:37;;;;;;;0.43;0.32;;;;;;;;;;5083554;28;20069;-78
2023/03/17 05:30:02;;;;;;;0.30;0.30;;;;;;;;;;5091197;28;20267;-77
2023/03/17 05:32:28;;;;;;;4.45;2.50;;;;;;;;;;5081756;28;20480;-77
2023/03/17 05:34:53;;;;;;;0.10;0.10;;;;;;;;;;5091992;28;20141;-77
2023/03/17 05:37:19;;;;;;;0.10;0.10;;;;;;;;;;5091996;28;20035;-74
2023/03/17 05:39:44;;;;;;;0.10;0.10;;;;;;;;;;5078870;28;20113;-77
2023/03/17 05:42:10;;;;;;;0.10;0.10;;;;;;;;;;5091459;28;20039;-77
2023/03/17 05:44:35;;;;;;;0.25;0.25;;;;;;;;;;5091016;28;20307;-77
2023/03/17 05:47:01;;;;;;;0.20;0.20;;;;;;;;;;5090940;28;20043;-77
2023/03/17 05:49:27;;;;;;;0.10;0.10;;;;;;;;;;5090222;28;20044;-77
2023/03/17 05:51:54;;;;;;;0.00;0.00;;;;;;;;;;5090754;28;20067;-77
2023/03/17 05:54:20;;;;;;;0.10;0.10;;;;;;;;;;5072772;28;20046;-78
2023/03/17 05:56:46;;;;;;;0.63;0.63;;;;;;;;;;5089662;28;20046;-77
2023/03/17 05:59:13;;;;;;;0.00;0.00;;;;;;;;;;5091807;28;20036;-77
2023/03/17 06:01:39;;;;;;;0.10;0.10;;;;;;;;;;5091053;28;20042;-77
2023/03/17 06:04:05;;;;;;;0.10;0.10;;;;;;;;;;5088060;28;20415;-77
2023/03/17 06:06:31;;;;;;;0.00;0.00;;;;;;;;;;5088506;28;20047;-77
2023/03/17 06:08:56;;;;;;;0.17;0.17;;;;;;;;;;5088196;28;20391;-78
2023/03/17 06:11:22;;;;;;;0.10;0.10;;;;;;;;;;5088058;28;20440;-78
2023/03/17 06:13:47;;;;;;;0.73;0.40;;;;;;;;;;5071734;28;20571;-77
2023/03/17 06:16:12;;;;;;;0.10;0.10;;;;;;;;;;5088873;28;20498;-77
2023/03/17 06:18:38;;;;;;;0.10;0.10;;;;;;;;;;5089322;28;20119;-77
2023/03/17 06:21:03;;;;;;;0.20;0.20;;;;;;;;;;5089880;28;20213;-77
2023/03/17 06:23:29;;;;;;;0.43;0.43;;;;;;;;;;5091110;28;20077;-77
2023/03/17 06:25:54;;;;;;;0.10;0.10;;;;;;;;;;5086462;28;20051;-78
2023/03/17 06:28:19;;;;;;;0.20;0.20;;;;;;;;;;5077160;28;20470;-75
2023/03/17 06:30:45;;;;;;;0.10;0.10;;;;;;;;;;5072355;28;20032;-76
2023/03/17 06:33:10;;;;;;;2.88;1.95;;;;;;;;;;5075351;28;20032;-77
2023/03/17 06:35:36;;;;;;;1.25;0.75;;;;;;;;;;5070966;28;20027;-76
2023/03/17 06:38:02;;;;;;;0.10;0.10;;;;;;;;;;5089813;28;20074;-77
2023/03/17 06:40:27;;;;;;;0.10;0.10;;;;;;;;;;5088696;28;20069;-76
2023/03/17 06:42:53;;;;;;;0.20;0.20;;;;;;;;;;5088928;28;20032;-77
2023/03/17 06:45:18;;;;;;;4.68;4.28;;;;;;;;;;5089350;28;20126;-75
2023/03/17 06:47:43;;;;;;;4.68;1.52;;;;;;;;;;5089066;28;20051;-76
2023/03/17 06:50:10;;;;;;;1.48;1.38;;;;;;;;;;5088925;28;20040;-76
2023/03/17 06:52:36;;;;;;;0.65;0.65;;;;;;;;;;5089170;28;20155;-76
2023/03/17 06:55:02;;;;;;;1.75;1.65;;;;;;;;;;5072187;28;20027;-76
2023/03/17 06:57:27;;;;;;;0.25;0.20;;;;;;;;;;5090406;28;20036;-76
2023/03/17 06:59:52;;;;;;;0.13;0.13;;;;;;;;;;5090389;28;20476;-76
2023/03/17 07:02:18;;;;;;;0.20;0.20;;;;;;;;;;5089031;28;20032;-77
2023/03/17 07:04:44;;;;;;;1.20;1.20;;;;;;;;;;5090053;28;20020;-77
2023/03/17 07:07:09;;;;;;;0.20;0.20;;;;;;;;;;5088821;28;20055;-77
2023/03/17 07:09:35;;;;;;;0.10;0.10;;;;;;;;;;5090135;28;20080;-77
2023/03/17 07:12:04;;;;;;;0.20;0.20;;;;;;;;;;5089893;28;20036;-77
2023/03/17 07:14:36;;;;;;;0.10;0.10;;;;;;;;;;5089941;28;20055;-77
2023/03/17 07:17:03;;;;;;;0.10;0.10;;;;;;;;;;5090119;28;20035;-76
2023/03/17 07:19:30;;;;;;;0.20;0.20;;;;;;;;;;5088567;28;20035;-77
2023/03/17 07:21:55;;;;;;;0.10;0.10;;;;;;;;;;5088740;28;20036;-76
2023/03/17 07:24:21;;;;;;;0.10;0.10;;;;;;;;;;5088257;28;20031;-77
2023/03/17 07:26:46;;;;;;;0.10;0.10;;;;;;;;;;5090138;28;20758;-77
2023/03/17 07:29:13;;;;;;;0.17;0.17;;;;;;;;;;5089663;28;20032;-76
2023/03/17 07:31:38;;;;;;;0.10;0.10;;;;;;;;;;5088428;28;20040;-77
2023/03/17 07:34:05;;;;;;;0.10;0.10;;;;;;;;;;5073235;28;20033;-74
2023/03/17 07:36:31;;;;;;;0.40;0.40;;;;;;;;;;5069333;28;20077;-77
2023/03/17 07:38:56;;;;;;;0.20;0.20;;;;;;;;;;5065852;28;20044;-77
2023/03/17 07:41:22;;;;;;;0.00;0.00;;;;;;;;;;5065497;28;20557;-75
2023/03/17 07:43:47;;;;;;;1.75;1.65;;;;;;;;;;5067272;28;20654;-76
2023/03/17 07:46:12;;;;;;;0.10;0.10;;;;;;;;;;5067339;28;20054;-75
2023/03/17 07:48:41;;;;;;;0.13;0.13;;;;;;;;;;5067225;28;20062;-75
2023/03/17 07:51:10;;;;;;;0.38;0.38;;;;;;;;;;5066809;28;20580;-76
2023/03/17 07:53:35;;;;;;;0.10;0.10;;;;;;;;;;5066685;28;20709;-76
2023/03/17 07:56:00;;;;;;;0.63;0.63;;;;;;;;;;5066806;28;20111;-77
2023/03/17 07:58:26;;;;;;;0.10;0.10;;;;;;;;;;5065597;28;20039;-76
2023/03/17 08:00:52;;;;;;;0.10;0.10;;;;;;;;;;5065997;28;20454;-76
2023/03/17 08:03:18;;;;;;;0.10;0.10;;;;;;;;;;5066564;28;20104;-76
2023/03/17 08:05:43;;;;;;;0.15;0.15;;;;;;;;;;5061698;28;20140;-76
2023/03/17 08:08:09;;;;;;;0.45;0.45;;;;;;;;;;5066987;28;20032;-77
2023/03/17 08:10:34;;;;;;;0.10;0.10;;;;;;;;;;5065149;28;20045;-76
2023/03/17 08:13:00;;;;;;;0.10;0.10;;;;;;;;;;5067165;28;20055;-77
2023/03/17 08:15:26;;;;;;;0.10;0.10;;;;;;;;;;5064807;28;20037;-76
2023/03/17 08:17:52;;;;;;;0.10;0.10;;;;;;;;;;5082543;28;20032;-76
2023/03/17 08:20:18;;;;;;;4.30;2.13;;;;;;;;;;5082289;28;20070;-75
2023/03/17 08:22:43;;;;;;;0.20;0.20;;;;;;;;;;5085699;28;20027;-76
2023/03/17 08:25:08;;;;;;;0.10;0.10;;;;;;;;;;5068997;28;20645;-76
2023/03/17 08:27:34;;;;;;;0.10;0.10;;;;;;;;;;5086423;28;20028;-73
2023/03/17 08:29:59;;;;;;;0.10;0.10;;;;;;;;;;5086862;28;20036;-73
2023/03/17 08:32:25;;;;;;;0.10;0.10;;;;;;;;;;5086757;28;20476;-73
2023/03/17 08:34:53;;;;;;;0.32;0.32;;;;;;;;;;5077877;28;20094;-73
2023/03/17 08:37:19;;;;;;;0.10;0.10;;;;;;;;;;5068330;28;20040;-72
2023/03/17 08:39:45;;;;;;;0.10;0.10;;;;;;;;;;5068677;28;20119;-72
2023/03/17 08:42:11;;;;;;;0.10;0.10;;;;;;;;;;5070717;28;20036;-71
2023/03/17 08:44:36;;;;;;;0.13;0.13;;;;;;;;;;5070467;28;20037;-72
2023/03/17 08:47:02;;;;;;;0.20;0.20;;;;;;;;;;5069296;28;20035;-72
2023/03/17 08:49:27;;;;;;;0.10;0.10;;;;;;;;;;5070448;28;20131;-73
2023/03/17 08:51:53;;;;;;;0.35;0.35;;;;;;;;;;5052160;28;20381;-72
2023/03/17 08:54:18;;;;;;;0.10;0.10;;;;;;;;;;5069246;28;20478;-73
2023/03/17 08:56:44;;;;;;;0.10;0.10;;;;;;;;;;5070717;28;20094;-72
2023/03/17 08:59:09;;;;;;;0.13;0.13;;;;;;;;;;5070112;28;20037;-72
2023/03/17 09:01:36;;;;;;;0.10;0.10;;;;;;;;;;5070923;28;20021;-72
2023/03/17 09:04:01;;;;;;;0.15;0.15;;;;;;;;;;5070133;28;20059;-71
2023/03/17 09:06:27;;;;;;;0.10;0.10;;;;;;;;;;5070380;28;20476;-71
2023/03/17 09:08:55;;;;;;;0.10;0.10;;;;;;;;;;5069871;28;20036;-72
2023/03/17 09:11:22;;;;;;;0.15;0.15;;;;;;;;;;5069761;28;20041;-71
2023/03/17 09:13:48;;;;;;;0.10;0.10;;;;;;;;;;5070271;28;20039;-71
2023/03/17 09:16:13;;;;;;;1.27;0.90;;;;;;;;;;5070120;28;20115;-72
2023/03/17 09:18:39;;;;;;;0.20;0.20;;;;;;;;;;5070146;28;20482;-72
2023/03/17 09:21:04;;;;;;;5.88;0.45;;;;;;;;;;5069756;28;20056;-72
2023/03/17 09:23:30;;;;;;;0.20;0.20;;;;;;;;;;5069800;28;20506;-71
2023/03/17 09:25:56;;;;;;;0.10;0.10;;;;;;;;;;5069565;28;20050;-73
2023/03/17 09:28:22;;;;;;;0.10;0.10;;;;;;;;;;5069341;28;20066;-72
2023/03/17 09:30:48;;;;;;;0.10;0.10;;;;;;;;;;5069748;28;20028;-72
2023/03/17 09:33:14;;;;;;;0.10;0.10;;;;;;;;;;5069477;28;20035;-71
2023/03/17 09:35:40;;;;;;;0.35;0.35;;;;;;;;;;5070551;28;20119;-71
2023/03/17 09:38:06;;;;;;;0.10;0.10;;;;;;;;;;5071612;28;20032;-71
2023/03/17 09:40:35;;;;;;;0.20;0.20;;;;;;;;;;5071360;28;20055;-72
2023/03/17 09:43:06;;;;;;;0.20;0.20;;;;;;;;;;5070305;28;20461;-72
2023/03/17 09:45:39;;;;;;;0.15;0.15;;;;;;;;;;5071399;28;20052;-73
2023/03/17 09:48:16;;;;;;;0.13;0.13;;;;;;;;;;5069710;28;20045;-72
2023/03/17 09:50:44;;;;;;;0.25;0.25;;;;;;;;;;5071161;28;20036;-72
2023/03/17 09:53:19;;;;;;;0.30;0.30;;;;;;;;;;5071248;28;20029;-72
2023/03/17 09:55:46;;;;;;;0.22;0.22;;;;;;;;;;5071318;28;20033;-72
2023/03/17 09:58:12;;;;;;;0.20;0.20;;;;;;;;;;5071585;28;20051;-72
2023/03/17 10:00:38;;;;;;;0.15;0.15;;;;;;;;;;5080821;28;20485;-71
2023/03/17 10:03:05;;;;;;;0.20;0.20;;;;;;;;;;5090425;28;20467;-72
2023/03/17 10:05:33;;;;;;;0.15;0.15;;;;;;;;;;5090287;28;20506;-72
2023/03/17 10:08:01;;;;;;;0.20;0.20;;;;;;;;;;5091262;28;20495;-72
2023/03/17 10:10:36;;;;;;;0.20;0.20;;;;;;;;;;5091357;28;20036;-72
2023/03/17 10:13:04;;;;;;;0.20;0.20;;;;;;;;;;5090928;28;20032;-71
2023/03/17 10:15:37;;;;;;;0.85;0.85;;;;;;;;;;5091011;28;20487;-71
2023/03/17 10:18:11;;;;;;;0.10;0.10;;;;;;;;;;5091133;28;20032;-71
2023/03/17 10:20:42;;;;;;;1.42;1.40;;;;;;;;;;5090882;28;20068;-71
2023/03/17 10:23:10;;;;;;;0.20;0.20;;;;;;;;;;5090041;28;20067;-71
2023/03/17 10:25:36;;;;;;;0.10;0.10;;;;;;;;;;5089413;28;20031;-72
2023/03/17 10:28:07;;;;;;;0.20;0.20;;;;;;;;;;5090934;28;20032;-71
2023/03/17 10:30:33;;;;;;;0.88;0.32;;;;;;;;;;5090038;28;20171;-71
2023/03/17 10:33:00;;;;;;;2.33;2.22;;;;;;;;;;5091095;28;20012;-71
2023/03/17 10:35:26;;;;;;;0.22;0.20;;;;;;;;;;5086675;28;20119;-72
2023/03/17 10:37:51;;;;;;;0.25;0.25;;;;;;;;;;5088346;28;20181;-71
2023/03/17 10:40:22;;;;;;;0.10;0.10;;;;;;;;;;5090924;28;20035;-71
2023/03/17 10:42:50;;;;;;;0.20;0.20;;;;;;;;;;5090638;28;20116;-71
2023/03/17 10:45:30;;;;;;;8.30;4.38;;;;;;;;;;5088891;28;20028;-71
2023/03/17 10:47:56;;;;;;;;;;;;;;;;;;5090608;28;20024;-70
2023/03/17 10:50:27;;;;;;;0.30;0.30;;;;;;;;;;5090319;28;20249;-71
2023/03/17 10:52:58;;;;;;;0.45;0.43;;;;;;;;;;5090521;28;20541;-70
2023/03/17 10:55:26;;;;;;;3.88;0.60;;;;;;;;;;5072097;28;20032;-73
2023/03/17 10:58:06;;;;;;;2.83;0.57;;;;;;;;;;5090178;28;20032;-72
2023/03/17 11:00:35;;;;;;;;;;;;;;;;;;5089843;28;20740;-71
2023/03/17 11:03:10;;;;;;;1.17;0.75;;;;;;;;;;5090178;28;19962;-72
2023/03/17 11:05:36;;;;;;;0.10;0.10;;;;;;;;;;5074429;28;20028;-72
2023/03/17 11:08:17;;;;;;;0.10;0.10;;;;;;;;;;5069952;28;20025;-72
2023/03/17 11:10:43;;;;;;;0.13;0.13;;;;;;;;;;5051862;28;20037;-71
2023/03/17 11:13:09;;;;;;;0.20;0.20;;;;;;;;;;5069977;28;20029;-72
2023/03/17 11:15:36;;;;;;;0.10;0.10;;;;;;;;;;5068082;28;20361;-71
2023/03/17 11:18:05;;;;;;;0.10;0.10;;;;;;;;;;5068448;28;20036;-70
2023/03/17 11:20:38;;;;;;;0.83;0.60;;;;;;;;;;5069272;28;20044;-70
2023/03/17 11:23:22;;;;;;;0.93;0.93;;;;;;;;;;5068214;28;20036;-71
2023/03/17 11:25:50;;;;;;;0.10;0.10;;;;;;;;;;5069479;28;20663;-72
2023/03/17 11:28:20;;;;;;;0.10;0.10;;;;;;;;;;5069642;28;20032;-71
2023/03/17 11:31:06;;;;;;;0.13;0.13;;;;;;;;;;5069303;28;20177;-71
2023/03/17 11:33:51;;;;;;;1.02;0.55;;;;;;;;;;5067952;28;20233;-72
2023/03/17 11:36:17;;;;;;;5.60;5.13;;;;;;;;;;5051255;28;20041;-71
2023/03/17 11:38:51;;;;;;;0.20;0.20;;;;;;;;;;5068168;28;20051;-71
2023/03/17 11:41:23;;;;;;;0.25;0.25;;;;;;;;;;5075527;28;20032;-71
2023/03/17 11:43:58;;;;;;;0.75;0.70;;;;;;;;;;5089197;28;20647;-72
2023/03/17 11:46:53;;;;;;;0.65;0.40;;;;;;;;;;5088530;28;20390;-71
2023/03/17 11:49:34;;;;;;;1.98;1.15;;;;;;;;;;5088016;28;20096;-71
2023/03/17 11:52:06;;;;;;;0.20;0.20;;;;;;;;;;5089165;28;20074;-71
2023/03/17 11:54:40;;;;;;;0.30;0.30;;;;;;;;;;5088102;28;20399;-71
2023/03/17 11:57:19;;;;;;;0.65;0.32;;;;;;;;;;5089304;28;20024;-70
2023/03/17 12:00:11;;;;;;;0.10;0.10;;;;;;;;;;5088038;28;20028;-71
2023/03/17 12:02:42;;;;;;;0.10;0.10;;;;;;;;;;5088401;28;20109;-71
2023/03/17 12:05:11;;;;;;;0.10;0.10;;;;;;;;;;5076563;28;20431;-73
2023/03/17 12:07:52;;;;;;;0.40;0.32;;;;;;;;;;5068518;28;20067;-71
2023/03/17 12:10:21;;;;;;;1.15;0.77;;;;;;;;;;5068726;28;20093;-71
2023/03/17 12:12:47;;;;;;;;;;;;;;;;;;5069329;28;20037;-71
2023/03/17 12:15:19;;;;;;;0.30;0.30;;;;;;;;;;5068682;28;19918;-71
2023/03/17 12:17:55;;;;;;;0.20;0.20;;;;;;;;;;5050861;28;20032;-71
2023/03/17 12:20:26;;;;;;;0.47;0.47;;;;;;;;;;5067847;28;20051;-71
2023/03/17 12:22:52;;;;;;;0.10;0.10;;;;;;;;;;5067590;28;20029;-70
2023/03/17 12:25:36;;;;;;;0.40;0.40;;;;;;;;;;5067727;28;20042;-71
2023/03/17 12:28:04;;;;;;;0.30;0.30;;;;;;;;;;5068827;28;20038;-71
2023/03/17 12:30:36;;;;;;;0.65;0.65;;;;;;;;;;5068627;28;20032;-70
2023/03/17 12:33:16;;;;;;;0.95;0.52;;;;;;;;;;5068641;28;20040;-70
2023/03/17 12:35:42;;;;;;;0.65;0.65;;;;;;;;;;5068704;28;20112;-70
2023/03/17 12:38:11;;;;;;;0.10;0.10;;;;;;;;;;5068185;28;20673;-71
2023/03/17 12:40:55;;;;;;;0.20;0.20;;;;;;;;;;5068755;28;20089;-71
2023/03/17 12:43:27;;;;;;;0.70;0.47;;;;;;;;;;5068351;28;20269;-72
2023/03/17 12:45:52;;;;;;;0.25;0.25;;;;;;;;;;5068653;28;20044;-70
2023/03/17 12:48:24;;;;;;;0.85;0.43;;;;;;;;;;5068557;28;20033;-70
2023/03/17 12:51:08;;;;;;;0.32;0.20;;;;;;;;;;5068415;28;20044;-71
2023/03/17 12:53:45;;;;;;;1.38;0.30;;;;;;;;;;5068144;28;20472;-70
2023/03/17 12:56:19;;;;;;;0.20;0.20;;;;;;;;;;5067106;28;20072;-71
2023/03/17 12:58:47;;;;;;;0.70;0.40;;;;;;;;;;5068043;28;20115;-71
2023/03/17 13:01:19;;;;;;;0.10;0.10;;;;;;;;;;5074970;28;20024;-70
2023/03/17 13:04:04;;;;;;;10.13;0.82;;;;;;;;;;5084564;28;20043;-71
2023/03/17 13:06:33;;;;;;;0.10;0.10;;;;;;;;;;5061305;28;20420;-70
2023/03/17 13:09:18;;;;;;;0.10;0.10;;;;;;;;;;5066203;28;20051;-70
2023/03/17 13:11:47;;;;;;;0.60;0.60;;;;;;;;;;5065547;28;20504;-70
2023/03/17 13:14:31;;;;;;;0.15;0.10;;;;;;;;;;5064467;28;20036;-72
2023/03/17 13:17:22;;;;;;;0.20;0.17;;;;;;;;;;5066487;28;20030;-71
2023/03/17 13:20:06;;;;;;;3.03;0.90;;;;;;;;;;5066091;28;20063;-71
2023/03/17 13:22:38;;;;;;;0.10;0.10;;;;;;;;;;5073517;28;20034;-71
2023/03/17 13:25:23;;;;;;;0.20;0.20;;;;;;;;;;5088813;28;20475;-72
2023/03/17 13:27:48;;;;;;;0.20;0.20;;;;;;;;;;5088225;28;20040;-71
2023/03/17 13:30:25;;;;;;;0.30;0.20;;;;;;;;;;5089670;28;20566;-72
2023/03/17 13:33:16;;;;;;;1.75;0.68;;;;;;;;;;5070497;28;20173;-70
2023/03/17 13:35:46;;;;;;;0.10;0.10;;;;;;;;;;5065592;28;20109;-71
2023/03/17 13:38:21;;;;;;;1.55;0.73;;;;;;;;;;5069344;28;20795;-70
2023/03/17 13:40:46;;;;;;;1.55;0.63;;;;;;;;;;5069475;28;20443;-71
2023/03/17 13:43:30;;;;;;;3.00;0.57;;;;;;;;;;5051560;28;20032;-74
2023/03/17 13:46:16;;;;;;;0.15;0.15;;;;;;;;;;5069497;28;20055;-71
2023/03/17 13:48:41;;;;;;;1.08;0.60;;;;;;;;;;5068015;28;20635;-72
2023/03/17 13:51:07;;;;;;;0.40;0.40;;;;;;;;;;5069039;28;20124;-71
2023/03/17 13:53:38;;;;;;;0.17;0.17;;;;;;;;;;5067845;28;20844;-71
2023/03/17 13:56:04;;;;;;;0.63;0.63;;;;;;;;;;5069583;28;20036;-73
2023/03/17 13:58:33;;;;;;;0.10;0.10;;;;;;;;;;5069032;28;20510;-72
2023/03/17 14:00:59;;;;;;;;;;;;;;;;;;5069764;28;20084;-74
2023/03/17 14:03:41;;;;;;;7.90;0.93;;;;;;;;;;5067362;28;20287;-74
2023/03/17 14:06:10;;;;;;;0.10;0.10;;;;;;;;;;5068943;28;20793;-74
2023/03/17 14:08:41;;;;;;;0.22;0.22;;;;;;;;;;5067862;28;20020;-72
2023/03/17 14:11:14;;;;;;;0.90;0.43;;;;;;;;;;5069129;28;20113;-73
2023/03/17 14:13:40;;;;;;;1.05;0.70;;;;;;;;;;5068853;28;20076;-73
2023/03/17 14:16:26;;;;;;;0.20;0.20;;;;;;;;;;5067096;28;20334;-72
2023/03/17 14:18:57;;;;;;;0.10;0.10;;;;;;;;;;5076904;28;20119;-73
2023/03/17 14:21:31;;;;;;;0.30;0.30;;;;;;;;;;5088812;28;20120;-75
2023/03/17 14:24:01;;;;;;;0.73;0.45;;;;;;;;;;5087879;28;20153;-74
2023/03/17 14:26:26;;;;;;;;;;;;;;;;;;5089198;28;20035;-75
2023/03/17 14:28:52;;;;;;;0.20;0.20;;;;;;;;;;5088746;28;19912;-75
2023/03/17 14:31:25;;;;;;;1.10;0.57;;;;;;;;;;5088941;28;20753;-73
2023/03/17 14:33:54;;;;;;;0.35;0.22;;;;;;;;;;5087841;28;20054;-75
2023/03/17 14:36:20;;;;;;;0.82;0.75;;;;;;;;;;5068447;28;20036;-73
2023/03/17 14:39:02;;;;;;;1.00;0.73;;;;;;;;;;5068577;28;20040;-74
2023/03/17 14:41:28;;;;;;;0.52;0.43;;;;;;;;;;5068312;28;20036;-74
2023/03/17 14:43:57;;;;;;;0.85;0.45;;;;;;;;;;5066994;28;20028;-75
2023/03/17 14:46:28;;;;;;;0.32;0.32;;;;;;;;;;5068308;28;20051;-74
2023/03/17 14:48:59;;;;;;;1.30;0.20;;;;;;;;;;5068651;28;20045;-74
2023/03/17 14:51:32;;;;;;;0.10;0.10;;;;;;;;;;5067836;28;20040;-76